Main page
METAR-TAF:

METAR-TAF

Airports :

Kärdla Airport

Kärdla, Estonia

latitude: 58-59N, longitude: 022-49E, elevation: 5 m

Current weather observation

The report was made 12 hours and 28 minutes ago, at 07:50 UTC
Wind 4 kt from the South/Southwest
Temperature 7°C
Humidity 100%
Pressure 1020 hPa
Visibility 10 km or more
Few clouds at a height of 3500 ft

METAR: EEKA 200750Z 20004KT 9999 FEW035 07/07 Q1020

Time: 23:18 (20:18 UTC)

Forecast

The report was made 16 hours and 18 minutes ago, at 04:00 UTC
Forecast valid from 20 at 05 UTC to 20 at 11 UTC
Wind 5 kt from the Southwest
Visibility 10 km or more
Scattered clouds at a height of 2500 ft
Probability 30% :
Temporary
from 20 at 05 UTC to 20 at 07 UTC
Broken clouds at a height of 600 ft

TAF: EEKA 200400Z 2005/2011 23005KT 9999 SCT025 PROB30 TEMPO 2005/2007 BKN006

Weather observations and forecasts of more than 4000 airports (METAR and TAF reports).

The available stations are represented by yellow and red dots on the map.

Hover mouse over dot to see the name of the station.

Then click to see weather observations and forecasts.

To change the map : click on the green buttons with a black cross to zoom in, on the green button with a dash to zoom out, or on the green arrows for adjacent maps.


METAR-TAF: